createdAt,value
2023-05-09T00:02:23.887Z,21.95
2023-05-09T00:04:52.530Z,22.13
2023-05-09T00:07:21.400Z,22.73
2023-05-09T00:09:49.540Z,23.20
2023-05-09T00:12:18.352Z,22.23
2023-05-09T00:14:48.356Z,21.55
2023-05-09T00:17:18.572Z,21.83
2023-05-09T00:19:48.137Z,20.85
2023-05-09T00:22:21.564Z,22.27
2023-05-09T00:24:50.291Z,21.75
2023-05-09T00:27:18.583Z,23.13
2023-05-09T00:29:46.915Z,23.15
2023-05-09T00:32:14.947Z,24.00
2023-05-09T00:34:43.187Z,23.73
2023-05-09T00:37:11.413Z,24.00
2023-05-09T00:39:39.886Z,24.42
2023-05-09T00:42:08.329Z,24.98
2023-05-09T00:44:36.854Z,24.25
2023-05-09T00:47:05.679Z,25.15
2023-05-09T00:49:34.860Z,25.10
2023-05-09T00:52:05.011Z,25.70
2023-05-09T00:54:33.692Z,24.55
2023-05-09T00:57:02.356Z,23.08
2023-05-09T00:59:30.499Z,23.50
2023-05-09T01:01:58.719Z,21.27
2023-05-09T01:04:28.093Z,20.92
2023-05-09T01:07:18.223Z,19.65
2023-05-09T01:10:35.634Z,20.15
2023-05-09T01:13:22.935Z,17.92
2023-05-09T01:16:10.227Z,18.02
2023-05-09T01:18:56.637Z,18.33
2023-05-09T01:21:29.426Z,18.92
2023-05-09T01:24:21.118Z,18.77
2023-05-09T01:27:10.949Z,18.27
2023-05-09T01:29:44.934Z,20.95
2023-05-09T01:32:20.325Z,19.95
2023-05-09T01:34:51.629Z,18.33
2023-05-09T01:37:24.497Z,20.90
2023-05-09T01:39:56.508Z,16.88
2023-05-09T01:42:27.961Z,16.52
2023-05-09T01:44:58.721Z,15.57
2023-05-09T01:47:28.166Z,13.02
2023-05-09T01:49:57.448Z,12.80
2023-05-09T01:52:27.584Z,11.65
2023-05-09T01:54:56.083Z,10.85
2023-05-09T01:57:25.139Z,10.43
2023-05-09T01:59:54.856Z,10.38
2023-05-09T02:02:24.353Z,9.50
2023-05-09T02:04:56.183Z,9.13
2023-05-09T02:07:26.345Z,9.05
2023-05-09T02:09:58.774Z,8.90
2023-05-09T02:12:27.311Z,9.30
2023-05-09T02:14:56.458Z,8.35
2023-05-09T02:17:25.759Z,9.25
2023-05-09T02:19:54.205Z,9.25
2023-05-09T02:22:43.720Z,8.68
2023-05-09T02:25:17.362Z,9.60
2023-05-09T02:27:47.054Z,9.73
2023-05-09T02:30:25.375Z,9.13
2023-05-09T02:33:00.065Z,9.30
2023-05-09T02:35:29.501Z,9.93
2023-05-09T02:37:59.698Z,8.88
2023-05-09T02:40:30.747Z,9.43
2023-05-09T02:42:59.720Z,9.38
2023-05-09T02:45:29.818Z,9.18
2023-05-09T02:47:59.250Z,9.95
2023-05-09T02:50:28.012Z,9.63
2023-05-09T02:52:56.151Z,10.25
2023-05-09T02:55:24.238Z,10.90
2023-05-09T02:58:05.276Z,11.20
2023-05-09T03:00:40.992Z,12.20
2023-05-09T03:03:10.219Z,11.20
2023-05-09T03:05:39.234Z,11.23
2023-05-09T03:08:07.478Z,12.40
2023-05-09T03:10:36.264Z,11.93
2023-05-09T03:13:05.343Z,13.23
2023-05-09T03:15:34.894Z,14.60
2023-05-09T03:18:04.134Z,13.02
2023-05-09T03:20:32.432Z,12.57
2023-05-09T03:23:01.731Z,12.43
2023-05-09T03:25:29.975Z,11.65
2023-05-09T03:27:58.585Z,11.98
2023-05-09T03:30:27.346Z,9.85
2023-05-09T03:32:56.813Z,10.18
2023-05-09T03:35:25.875Z,9.93
2023-05-09T03:37:56.035Z,9.98
2023-05-09T03:40:24.245Z,10.15
2023-05-09T03:43:02.924Z,9.70
2023-05-09T03:45:31.792Z,9.00
2023-05-09T03:48:00.207Z,8.50
2023-05-09T03:50:29.501Z,6.55
2023-05-09T03:52:59.452Z,7.10
2023-05-09T03:55:28.029Z,7.13
2023-05-09T03:57:56.913Z,6.57
2023-05-09T04:00:26.833Z,7.10
2023-05-09T04:06:09.043Z,7.35
2023-05-09T04:08:42.124Z,7.13
2023-05-09T04:11:10.545Z,7.57
2023-05-09T04:13:41.523Z,5.85
2023-05-09T04:16:22.764Z,6.45
2023-05-09T04:18:51.562Z,6.50
2023-05-09T04:21:20.132Z,6.45
2023-05-09T04:23:51.641Z,6.30
2023-05-09T04:26:26.123Z,6.70
2023-05-09T04:28:57.605Z,7.20
2023-05-09T04:31:26.968Z,6.82
2023-05-09T04:33:56.144Z,6.82
2023-05-09T04:36:49.356Z,6.80
2023-05-09T04:39:17.364Z,7.82
2023-05-09T04:41:54.970Z,8.05
2023-05-09T04:44:24.645Z,8.20
2023-05-09T04:46:55.225Z,8.50
2023-05-09T04:49:23.971Z,7.88
2023-05-09T04:51:52.802Z,7.63
2023-05-09T04:54:21.604Z,7.20
2023-05-09T04:56:57.901Z,8.47
2023-05-09T04:59:32.364Z,8.18
2023-05-09T05:02:01.010Z,7.88
2023-05-09T05:04:30.330Z,9.40
2023-05-09T05:06:58.976Z,7.13
2023-05-09T05:09:27.562Z,8.30
2023-05-09T05:12:01.818Z,9.23
2023-05-09T05:14:32.803Z,8.57
2023-05-09T05:17:01.491Z,9.93
2023-05-09T05:19:30.874Z,9.40
2023-05-09T05:22:00.649Z,10.15
2023-05-09T05:24:30.040Z,9.43
2023-05-09T05:26:58.567Z,9.55
2023-05-09T05:29:27.020Z,10.15
2023-05-09T05:31:55.722Z,10.40
2023-05-09T05:34:24.341Z,9.93
2023-05-09T05:36:53.504Z,9.80
2023-05-09T05:39:21.927Z,9.00
2023-05-09T05:41:52.115Z,10.30
2023-05-09T05:44:21.573Z,9.20
2023-05-09T05:46:49.837Z,9.48
2023-05-09T05:49:18.285Z,10.18
2023-05-09T05:51:47.754Z,9.82
2023-05-09T05:54:17.108Z,9.00
2023-05-09T05:56:45.444Z,8.30
2023-05-09T05:59:13.714Z,8.93
2023-05-09T06:01:42.129Z,9.75
2023-05-09T06:04:11.407Z,10.23
2023-05-09T06:06:40.068Z,11.00
2023-05-09T06:09:08.415Z,11.85
2023-05-09T06:11:37.650Z,11.02
2023-05-09T06:14:05.824Z,11.25
2023-05-09T06:16:34.321Z,10.75
2023-05-09T06:19:03.766Z,10.88
2023-05-09T06:21:34.305Z,10.15
2023-05-09T06:24:11.836Z,9.77
2023-05-09T06:26:45.566Z,9.57
2023-05-09T06:29:15.427Z,9.60
2023-05-09T06:31:43.859Z,10.30
2023-05-09T06:34:12.687Z,8.65
2023-05-09T06:36:41.437Z,8.25
2023-05-09T06:39:10.080Z,8.38
2023-05-09T06:41:38.074Z,6.82
2023-05-09T06:44:06.948Z,6.65
2023-05-09T06:46:35.694Z,6.38
2023-05-09T06:49:06.121Z,5.97
2023-05-09T06:51:34.855Z,5.30
2023-05-09T06:54:03.541Z,4.88
2023-05-09T06:56:32.193Z,6.38
2023-05-09T06:59:00.796Z,7.30
2023-05-09T07:01:29.737Z,7.43
2023-05-09T07:03:59.302Z,6.78
2023-05-09T07:06:27.862Z,5.82
2023-05-09T07:08:57.048Z,6.93
2023-05-09T07:11:25.239Z,6.13
2023-05-09T07:13:53.452Z,5.47
2023-05-09T07:16:23.161Z,5.28
2023-05-09T07:18:51.872Z,5.35
2023-05-09T07:21:20.884Z,4.80
2023-05-09T07:23:49.468Z,5.38
2023-05-09T07:26:18.621Z,4.57
2023-05-09T07:28:47.021Z,4.28
2023-05-09T07:31:16.073Z,3.95
2023-05-09T07:33:44.849Z,4.03
2023-05-09T07:36:14.997Z,3.30
2023-05-09T07:38:44.927Z,2.83
2023-05-09T07:41:13.589Z,3.13
2023-05-09T07:43:42.081Z,3.15
2023-05-09T07:46:10.920Z,3.25
2023-05-09T07:48:39.667Z,2.88
2023-05-09T07:51:07.754Z,2.70
2023-05-09T07:53:37.015Z,2.80
2023-05-09T07:56:06.924Z,3.30
2023-05-09T07:58:35.308Z,3.45
2023-05-09T08:01:03.878Z,3.88
2023-05-09T08:03:32.588Z,3.60
2023-05-09T08:06:01.265Z,3.42
2023-05-09T08:08:29.948Z,3.13
2023-05-09T08:10:58.699Z,3.22
2023-05-09T08:13:27.834Z,2.78
2023-05-09T08:15:57.190Z,3.08
2023-05-09T08:18:26.662Z,3.10
2023-05-09T08:20:55.416Z,3.40
2023-05-09T08:23:23.471Z,2.70
2023-05-09T08:25:55.197Z,3.38
2023-05-09T08:28:24.481Z,3.13
2023-05-09T08:30:53.648Z,3.53
2023-05-09T08:33:22.235Z,3.45
2023-05-09T08:35:54.420Z,3.42
2023-05-09T08:38:24.416Z,3.72
2023-05-09T08:40:52.982Z,3.30
2023-05-09T08:43:24.295Z,2.70
2023-05-09T08:45:58.653Z,3.22
2023-05-09T08:48:29.613Z,2.90
2023-05-09T08:50:58.764Z,3.00
2023-05-09T08:53:27.581Z,2.80
2023-05-09T08:55:56.779Z,3.05
2023-05-09T08:58:25.330Z,3.90
2023-05-09T09:00:55.712Z,3.30
2023-05-09T09:03:26.516Z,2.92
2023-05-09T09:05:56.479Z,3.75
2023-05-09T09:08:27.706Z,3.30
2023-05-09T09:10:56.504Z,2.90
2023-05-09T09:13:25.872Z,2.88
2023-05-09T09:15:54.965Z,3.05
2023-05-09T09:18:26.669Z,2.95
2023-05-09T09:21:07.967Z,2.77
2023-05-09T09:23:39.273Z,3.03
2023-05-09T09:26:07.814Z,2.90
2023-05-09T09:28:36.575Z,2.60
2023-05-09T09:31:23.895Z,2.80
2023-05-09T09:33:52.312Z,3.40
2023-05-09T09:36:29.163Z,2.88
2023-05-09T09:39:01.077Z,3.22
2023-05-09T09:41:38.003Z,3.63
2023-05-09T09:44:33.982Z,3.00
2023-05-09T09:47:02.823Z,3.10
2023-05-09T09:49:30.847Z,3.47
2023-05-09T09:51:59.824Z,3.20
2023-05-09T09:54:28.982Z,2.88
2023-05-09T09:56:57.839Z,3.17
2023-05-09T09:59:27.538Z,3.08
2023-05-09T10:02:00.508Z,3.38
2023-05-09T10:04:32.419Z,3.15
2023-05-09T10:07:06.288Z,3.00
2023-05-09T10:09:37.574Z,2.78
2023-05-09T10:12:08.285Z,3.15
2023-05-09T10:14:41.347Z,2.85
2023-05-09T10:17:14.156Z,3.33
2023-05-09T10:19:47.916Z,3.28
2023-05-09T10:22:18.587Z,3.20
2023-05-09T10:25:04.403Z,3.20
2023-05-09T10:27:36.532Z,3.92
2023-05-09T10:30:10.658Z,3.35
2023-05-09T10:32:58.829Z,3.17
2023-05-09T10:35:31.155Z,3.20
2023-05-09T10:38:02.102Z,3.30
2023-05-09T10:40:32.147Z,3.70
2023-05-09T10:43:00.849Z,2.80
2023-05-09T10:45:29.088Z,3.55
2023-05-09T10:47:59.180Z,3.05
2023-05-09T10:50:28.504Z,3.85
2023-05-09T10:53:17.265Z,3.50
2023-05-09T10:55:55.738Z,3.72
2023-05-09T10:58:29.011Z,3.33
2023-05-09T11:00:59.851Z,3.65
2023-05-09T11:03:29.775Z,4.10
2023-05-09T11:05:59.299Z,3.60
2023-05-09T11:08:33.278Z,3.53
2023-05-09T11:11:08.554Z,3.63
2023-05-09T11:13:41.175Z,3.60
2023-05-09T11:16:11.034Z,3.55
2023-05-09T11:18:52.344Z,3.75
2023-05-09T11:21:21.840Z,4.15
2023-05-09T11:29:16.318Z,3.75
2023-05-09T11:32:05.703Z,4.00
2023-05-09T11:34:34.690Z,3.47
2023-05-09T11:37:19.518Z,3.60
2023-05-09T11:40:00.407Z,3.40
2023-05-09T11:42:31.050Z,3.78
2023-05-09T11:44:59.880Z,3.90
2023-05-09T11:47:29.670Z,4.10
2023-05-09T11:49:58.140Z,3.60
2023-05-09T11:52:27.012Z,3.88
2023-05-09T11:54:55.239Z,3.40
2023-05-09T11:57:24.472Z,3.70
2023-05-09T11:59:53.851Z,3.47
2023-05-09T12:02:23.011Z,4.13
2023-05-09T12:04:51.906Z,3.70
2023-05-09T12:07:20.718Z,4.45
2023-05-09T12:09:50.074Z,3.92
2023-05-09T12:12:21.707Z,4.57
2023-05-09T12:14:50.138Z,4.00
2023-05-09T12:17:18.156Z,4.20
2023-05-09T12:19:47.141Z,3.80
2023-05-09T12:22:16.694Z,3.70
2023-05-09T12:24:45.410Z,3.58
2023-05-09T12:27:14.420Z,3.97
2023-05-09T12:29:46.357Z,4.28
2023-05-09T12:32:19.300Z,3.90
2023-05-09T12:37:21.576Z,5.13
2023-05-09T12:40:04.499Z,3.92
2023-05-09T12:42:35.341Z,3.92
2023-05-09T12:45:07.743Z,3.72
2023-05-09T12:47:39.033Z,3.85
2023-05-09T12:50:10.467Z,4.35
2023-05-09T12:53:02.075Z,4.22
2023-05-09T12:55:33.047Z,3.85
2023-05-09T12:58:03.711Z,4.15
2023-05-09T13:00:46.106Z,3.85
2023-05-09T13:03:27.501Z,3.42
2023-05-09T13:06:01.937Z,4.30
2023-05-09T13:08:31.215Z,4.07
2023-05-09T13:11:14.733Z,3.97
2023-05-09T13:13:45.183Z,4.25
2023-05-09T13:16:15.854Z,4.10
2023-05-09T13:18:46.428Z,3.90
2023-05-09T13:21:15.109Z,3.80
2023-05-09T13:23:45.666Z,3.83
2023-05-09T13:26:14.705Z,3.80
2023-05-09T13:28:43.711Z,4.35
2023-05-09T13:31:11.828Z,4.05
2023-05-09T13:33:41.014Z,3.70
2023-05-09T13:36:10.342Z,4.25
2023-05-09T13:38:40.777Z,4.13
2023-05-09T13:41:10.391Z,3.88
2023-05-09T13:43:41.358Z,3.75
2023-05-09T13:46:09.580Z,3.67
2023-05-09T13:48:38.206Z,4.15
2023-05-09T13:51:07.944Z,4.53
2023-05-09T13:53:38.727Z,4.40
2023-05-09T13:56:09.633Z,3.88
2023-05-09T13:58:38.605Z,4.60
2023-05-09T14:01:08.264Z,3.90
2023-05-09T14:03:37.562Z,4.13
2023-05-09T14:06:06.199Z,4.38
2023-05-09T14:08:34.802Z,3.95
2023-05-09T14:11:03.061Z,4.03
2023-05-09T14:13:32.325Z,4.07
2023-05-09T14:16:01.460Z,4.38
2023-05-09T14:18:29.678Z,4.40
2023-05-09T14:20:58.685Z,4.25
2023-05-09T14:23:27.181Z,4.15
2023-05-09T14:25:55.377Z,3.78
2023-05-09T14:28:24.212Z,3.85
2023-05-09T14:30:52.944Z,4.03
2023-05-09T14:33:21.700Z,4.13
2023-05-09T14:35:51.268Z,3.97
2023-05-09T14:38:20.037Z,4.32
2023-05-09T14:40:49.676Z,4.35
2023-05-09T14:43:18.240Z,4.40
2023-05-09T14:45:47.491Z,4.15
2023-05-09T14:48:16.343Z,4.00
2023-05-09T14:50:45.129Z,3.50
2023-05-09T14:53:13.715Z,3.13
2023-05-09T14:55:41.973Z,3.28
2023-05-09T14:58:13.625Z,3.78
2023-05-09T15:00:42.250Z,3.85
2023-05-09T15:03:11.049Z,3.95
2023-05-09T15:05:41.318Z,3.75
2023-05-09T15:08:09.791Z,3.58
2023-05-09T15:10:38.746Z,4.32
2023-05-09T15:13:07.802Z,3.60
2023-05-09T15:15:39.201Z,4.20
2023-05-09T15:18:13.401Z,3.92
2023-05-09T15:20:42.037Z,4.45
2023-05-09T15:23:11.245Z,4.30
2023-05-09T15:25:42.965Z,5.53
2023-05-09T15:28:11.923Z,4.25
2023-05-09T15:30:41.705Z,4.60
2023-05-09T15:33:11.078Z,4.65
2023-05-09T15:35:40.133Z,4.40
2023-05-09T15:38:12.186Z,4.70
2023-05-09T15:40:41.591Z,4.07
2023-05-09T15:43:10.101Z,4.85
2023-05-09T15:45:45.788Z,4.20
2023-05-09T15:48:16.123Z,4.60
2023-05-09T15:50:45.286Z,4.57
2023-05-09T15:53:15.651Z,4.75
2023-05-09T15:55:44.885Z,4.90
2023-05-09T15:58:14.269Z,4.75
2023-05-09T16:00:42.673Z,4.70
2023-05-09T16:03:12.130Z,4.68
2023-05-09T16:05:41.318Z,5.18
2023-05-09T16:08:09.932Z,5.13
2023-05-09T16:10:39.099Z,4.80
2023-05-09T16:13:08.429Z,4.80
2023-05-09T16:15:37.297Z,4.63
2023-05-09T16:18:06.241Z,4.45
2023-05-09T16:20:34.817Z,4.25
2023-05-09T16:23:03.972Z,5.88
2023-05-09T16:25:35.215Z,4.95
2023-05-09T16:28:04.006Z,4.38
2023-05-09T16:30:32.721Z,5.60
2023-05-09T16:33:02.232Z,4.97
2023-05-09T16:35:31.192Z,5.30
2023-05-09T16:37:59.887Z,5.78
2023-05-09T16:40:28.646Z,5.00
2023-05-09T16:42:57.515Z,4.70
2023-05-09T16:45:25.960Z,5.10
2023-05-09T16:47:58.009Z,5.50
2023-05-09T16:50:28.940Z,5.78
2023-05-09T16:52:57.469Z,6.80
2023-05-09T16:55:27.096Z,4.97
2023-05-09T16:57:55.952Z,5.72
2023-05-09T17:00:24.259Z,5.63
2023-05-09T17:02:52.436Z,5.82
2023-05-09T17:05:21.443Z,5.70
2023-05-09T17:07:50.087Z,6.00
2023-05-09T17:10:19.305Z,5.85
2023-05-09T17:12:48.274Z,5.45
2023-05-09T17:15:17.205Z,6.25
2023-05-09T17:17:49.440Z,6.28
2023-05-09T17:20:18.464Z,6.20
2023-05-09T17:22:47.323Z,6.55
2023-05-09T17:25:17.154Z,7.38
2023-05-09T17:27:45.888Z,8.35
2023-05-09T17:30:14.570Z,8.02
2023-05-09T17:32:44.047Z,8.57
2023-05-09T17:35:13.942Z,7.50
2023-05-09T17:37:42.711Z,6.63
2023-05-09T17:40:11.560Z,6.78
2023-05-09T17:42:41.368Z,6.75
2023-05-09T17:45:14.558Z,6.68
2023-05-09T17:50:14.650Z,6.68
2023-05-09T17:52:44.821Z,6.47
2023-05-09T17:55:13.350Z,6.25
2023-05-09T17:57:43.087Z,6.03
2023-05-09T18:00:13.056Z,6.50
2023-05-09T18:05:14.308Z,8.55
2023-05-09T18:07:43.086Z,17.10
2023-05-09T18:10:13.193Z,25.23
2023-05-09T18:12:45.199Z,42.17
2023-05-09T18:15:14.343Z,45.10
2023-05-09T18:18:21.107Z,52.65
2023-05-09T18:20:50.373Z,48.08
2023-05-09T18:23:19.297Z,35.88
2023-05-09T18:25:48.930Z,29.73
2023-05-09T18:28:24.853Z,35.33
2023-05-09T18:30:56.441Z,32.45
2023-05-09T18:33:49.047Z,30.48
2023-05-09T18:36:26.481Z,27.45
2023-05-09T18:39:02.292Z,23.83
2023-05-09T18:41:48.614Z,20.77
2023-05-09T18:45:32.767Z,19.13
2023-05-09T18:48:43.231Z,20.90
2023-05-09T18:51:11.526Z,17.13
2023-05-09T18:54:12.153Z,16.48
2023-05-09T18:57:05.298Z,17.00
2023-05-09T18:59:33.328Z,16.10
2023-05-09T19:02:01.312Z,17.73
2023-05-09T19:04:29.663Z,12.85
2023-05-09T19:06:59.486Z,14.38
2023-05-09T19:09:27.883Z,12.63
2023-05-09T19:11:56.662Z,11.10
2023-05-09T19:14:24.675Z,11.68
2023-05-09T19:16:52.742Z,10.52
2023-05-09T19:19:20.750Z,10.15
2023-05-09T19:21:50.129Z,9.57
2023-05-09T19:24:18.447Z,8.55
2023-05-09T19:26:46.707Z,7.70
2023-05-09T19:29:14.767Z,7.45
2023-05-09T19:31:42.950Z,8.05
2023-05-09T19:34:11.241Z,7.80
2023-05-09T19:36:42.479Z,7.40
2023-05-09T19:39:11.293Z,8.50
2023-05-09T19:41:39.353Z,8.30
2023-05-09T19:44:07.445Z,7.82
2023-05-09T19:46:38.234Z,7.43
2023-05-09T19:49:06.613Z,7.28
2023-05-09T19:51:34.946Z,7.32
2023-05-09T19:54:03.643Z,7.53
2023-05-09T19:56:31.975Z,7.72
2023-05-09T19:59:00.206Z,7.85
2023-05-09T20:01:28.555Z,8.45
2023-05-09T20:03:57.024Z,7.60
2023-05-09T20:06:28.454Z,9.25
2023-05-09T20:08:56.533Z,8.63
2023-05-09T20:11:24.598Z,8.95
2023-05-09T20:13:52.673Z,9.02
2023-05-09T20:16:21.465Z,8.43
2023-05-09T20:18:52.476Z,8.55
2023-05-09T20:21:20.905Z,8.23
2023-05-09T20:23:48.939Z,9.13
2023-05-09T20:26:17.009Z,9.85
2023-05-09T20:28:45.153Z,9.48
2023-05-09T20:31:13.205Z,9.63
2023-05-09T20:33:41.235Z,9.35
2023-05-09T20:36:09.823Z,8.70
2023-05-09T20:38:37.792Z,9.40
2023-05-09T20:41:05.933Z,10.43
2023-05-09T20:43:34.177Z,10.25
2023-05-09T20:46:02.508Z,9.95
2023-05-09T20:48:31.208Z,9.77
2023-05-09T20:50:59.489Z,9.70
2023-05-09T20:53:31.521Z,10.68
2023-05-09T20:56:00.053Z,10.27
2023-05-09T20:58:34.824Z,9.10
2023-05-09T21:01:03.079Z,10.60
2023-05-09T21:03:31.254Z,10.07
2023-05-09T21:05:59.501Z,9.50
2023-05-09T21:08:27.713Z,9.85
2023-05-09T21:10:56.132Z,9.75
2023-05-09T21:13:24.500Z,8.82
2023-05-09T21:15:52.698Z,8.80
2023-05-09T21:18:21.080Z,9.05
2023-05-09T21:20:49.283Z,9.13
2023-05-09T21:23:18.681Z,9.10
2023-05-09T21:25:46.924Z,9.98
2023-05-09T21:28:15.752Z,10.30
2023-05-09T21:30:43.654Z,9.88
2023-05-09T21:33:11.726Z,10.65
2023-05-09T21:35:39.841Z,9.70
2023-05-09T21:38:07.966Z,9.07
2023-05-09T21:40:36.100Z,9.15
2023-05-09T21:43:04.169Z,10.00
2023-05-09T21:45:32.352Z,9.70
2023-05-09T21:48:00.914Z,10.02
2023-05-09T21:50:29.199Z,10.68
2023-05-09T21:52:57.635Z,10.02
2023-05-09T21:55:25.880Z,9.95
2023-05-09T21:57:53.790Z,10.05
2023-05-09T22:00:21.896Z,9.95
2023-05-09T22:02:50.666Z,9.75
2023-05-09T22:05:18.834Z,11.00
2023-05-09T22:07:46.954Z,10.38
2023-05-09T22:10:15.218Z,10.10
2023-05-09T22:12:43.603Z,9.30
2023-05-09T22:15:11.708Z,9.95
2023-05-09T22:17:40.008Z,10.00
2023-05-09T22:20:09.221Z,10.32
2023-05-09T22:22:37.206Z,10.90
2023-05-09T22:25:05.785Z,10.82
2023-05-09T22:27:34.025Z,11.00
2023-05-09T22:30:03.601Z,11.18
2023-05-09T22:32:33.791Z,11.60
2023-05-09T22:35:02.442Z,10.70
2023-05-09T22:37:32.160Z,11.20
2023-05-09T22:40:03.223Z,10.88
2023-05-09T22:42:34.953Z,12.90
2023-05-09T22:45:03.451Z,12.40
2023-05-09T22:47:33.994Z,11.60
2023-05-09T22:50:02.186Z,13.50
2023-05-09T22:52:32.276Z,12.63
2023-05-09T22:55:00.398Z,12.93
2023-05-09T22:57:28.582Z,13.27
2023-05-09T22:59:56.918Z,11.98
2023-05-09T23:02:26.263Z,13.07
2023-05-09T23:04:54.414Z,12.73
2023-05-09T23:07:22.912Z,13.30
2023-05-09T23:09:50.994Z,12.23
2023-05-09T23:12:19.237Z,11.82
2023-05-09T23:14:47.474Z,12.95
2023-05-09T23:17:15.524Z,13.63
2023-05-09T23:19:43.790Z,14.07
2023-05-09T23:22:12.046Z,12.55
2023-05-09T23:24:40.073Z,14.05
2023-05-09T23:27:08.288Z,13.10
2023-05-09T23:29:36.294Z,13.65
2023-05-09T23:32:04.707Z,13.50
2023-05-09T23:34:32.825Z,14.75
2023-05-09T23:37:01.218Z,14.70
2023-05-09T23:39:29.503Z,13.80
2023-05-09T23:41:58.325Z,14.65
2023-05-09T23:44:26.988Z,14.13
2023-05-09T23:46:55.011Z,14.35
2023-05-09T23:49:23.304Z,14.98
2023-05-09T23:51:51.710Z,16.10
2023-05-09T23:54:21.573Z,14.65
2023-05-09T23:56:49.634Z,15.90
2023-05-09T23:59:17.754Z,15.30
